Aérodrome :
LOGIN :

S'inscrire | Disclaimer

   EN    FR    IT 

 










Légende :    VFR   VFR Marginal   IFR   IFR Intensif   IFR Très Intensif
Visi : 
Plafond : 
>= 8 km
>= 3000ft
5 à 8 km
1000 à 3000 ft
1500m à 5 km
500 à 1000 ft
800 à 1500m
200 à 500 ft
< 800m
< 200 ft
Symboles :   Orages  Brouillard  Fortes neiges  Fortes précipitations  Vent > 20 kt
SIGMETs :   Divers  Orages  Givrage  Turbulence  Onde Orograph.  Cendres Volcan.







- Altitude de l'aérodrome : 485 ft
- Code IATA : QSA


LELL - Sabadell

DERNIER METAR :
  • 220630Z AUTO 00000KT 9999 NCD M01/M02 Q1006

METARs EXPIRÉS :
  • 220600Z AUTO VRB01KT 9999 NCD M01/M02 Q1006
  • 220530Z AUTO 29003KT 9999 NCD M01/M02 Q1006
  • 220500Z AUTO 28005KT 9999 NCD M01/M02 Q1006

TAF TAF LELL
Valide du 21 à 15h jusqu'au 22 à 15h UTC


211400Z 2115/2215 05010KT 9999 FEW020 TX10/2213Z TNM01/2206Z
PROB40
TEMPO 2115/2117 04011G25KT
BECMG 2121/2123 30005KT
Pas de NOTAMs connus pour ce terrain.
1 SIGMET publié pour la FIR Barcelona (LECB) :
 
Turbulence forte
LECB SIGMET 1 VALID 220400/220800 LEVA
LECB BARCELONA FIR/UIR SEV TURB FCST N OF LINE N37 W00150 - N4040 E00440 FL180/320 MOV E 10KT NC=



MET'MAP, la Météo Aéronautique d'un coup d'oeil ! - Copyright ORBIFLY Décembre 2007 - Disclaimer

ORBIFLY MET'MAP TEAM :

Programmation & Développement : Alexandra Zaïnal
Conception & Développement : Baudouin d'Aumeries
Co-Programmation & Développement : Marc-Olivier Méhu
Soutien technique & logistique : Manuel Goepfert

Contact : metmap@orbifly.com




SOURCES & CREDITS :

   NOAA